NOTICE: In January 2020, USGS WaterWatch began operating in maintenance-only mode. Existing tools, features, and web data services are being fully maintained as before, but new tools and enhancements will no longer be developed. Please click here for more information or contact USGS WaterWatch if you have any questions.
Choose a state:
Most recent flow and stage for Montana
(Stations highlighted in red are currently above flood stage)
USGS
station
ID
USGS station name NWS
flood
stage
(ft)
Most recent
stage
(ft)
Most recent
flow
(cfs)
Historical
peaks
(cfs)
Most recent
local
date/time
NWS
station
ID
05014300 Swiftcurrent Cr ab Swiftcurrent Lk at Many Glacier   2.20 221 2,000 2021-05-17 05:30:00 SCLM8
05014500 Swiftcurrent Creek at Many Glacier MT   2.84 475 6,700 2021-05-17 05:30:00 MGGM8
05015500 Lake Sherburne at Sherburne MT   4758.74

 

  2021-05-17 05:00:00 SBUM8
05017500 St. Mary River near Babb MT   3.50 1,310 16,500 2021-05-17 05:15:00 SMYM8
05018000 St. Mary Canal at intake near Babb MT   7.56 624   2021-05-17 05:15:00 SCIM8
05018500 St. Mary Canal at St. Mary Crossing near Babb MT   7.54 602 767 2021-05-17 05:15:00 SCCM8
05020500 St. Mary River at International Boundary 7.5 4.91 865 40,000 2021-05-17 05:10:00 SMBM8
06006000 Red Rock Cr ab Lakes, nr Lakeview, MT   3.09 46.6 293 2021-05-17 05:30:00 RRLM8
06012500 Red Rock R bl Lima Reservoir nr Monida MT   1.41 32.9 2,500 2021-05-17 05:30:00 LRRM8
06016000 Beaverhead River at Barretts MT   1.82 585 3,720 2021-05-17 05:15:00 BARM8
06017000 Beaverhead River at Dillon MT   3.18 132 1,740 2021-05-17 05:15:00 DILM8
06018500 Beaverhead River near Twin Bridges MT 7 3.23 60.3 3,130 2021-05-17 05:15:00 TWNM8
06019500 Ruby River above reservoir near Alder, MT   3.39 253 3,810 2021-05-17 05:45:00 RRRM8
06020600 Ruby River below reservoir near Alder, MT   3.41 287 3,010 2021-05-17 05:45:00 RRBM8
06023000 Ruby River near Twin Bridges MT   1.80 30.2 1,500 2021-05-17 05:45:00 RTBM8
06023100 Beaverhead River at Twin Bridges, MT   1.49

 

2,830 2021-05-17 05:30:00 TWBM8
06023500 Big Hole River near Jackson MT   1.78 71.8 938 2021-05-17 05:15:00 JKSM8
06023800 Big Hole River ab Spring Creek nr Jackson MT   1.73 36.3 474 2021-05-17 05:00:00 SCRM8
06024020 Big Hole River at Miner Creek nr Jackson MT   1.36 116 2,300 2021-05-16 16:15:00 MCKM8
06024450 Big Hole River bl Big Lake Cr at Wisdom MT   2.26 72.6 4,550 2021-05-17 05:45:00 BGKM8
06024540 Big Hole River bl Mudd Cr nr Wisdom MT   3.79 1,060 7,300 2021-05-17 05:30:00 BHDM8
06024580 Big Hole River near Wise River MT   3.93 1,420 9,130 2021-05-17 05:30:00 WSVM8
06025250 Big Hole River at Maiden Rock nr Divide MT   4.33 1,670 10,600 2021-05-17 05:45:00 MRDM8
06025500 Big Hole River near Melrose MT 6 2.87 1,490 23,000 2021-05-17 05:15:00 MLRM8
06026210 Big Hole River near Glen MT   3.55 1,740 11,900 2021-05-17 05:30:00 GNLM8
06026420 Big Hole R bl Hamilton Ditch nr Twin Bridges, MT   2.589 1,350 11,200 2021-05-17 05:30:00 THDM8
06026500 Jefferson River near Twin Bridges MT 10 4.33 1,670 16,500 2021-05-17 05:15:00 TWIM8
06027600 Jefferson River at Parsons Bdg nr Silver Star, MT   4.06 Ssn 13,600 2021-05-17 05:30:00 PBRM8
06033000 Boulder River near Boulder MT   6.77 488 7,000 2021-05-17 05:15:00 BLDM8
06035000 Willow Creek near Harrison MT   1.08 11.7 813 2021-05-17 05:15:00 WCHM8
06036650 Jefferson River near Three Forks MT 8 3.42 1,290 17,400 2021-05-17 05:00:00 TFKM8
06036805 Firehole River at Old Faithful, YNP   2.78 92.3 477 2021-05-17 05:00:00  
06036905 Firehole River near West Yellowstone MT   3.48 412 2,050 2021-05-17 05:00:00  
06036940 Tantalus Creek at Norris Junction, YNP   1.46 3.80 60.0 2021-05-17 05:30:00  
06037100 Gibbon River at Madison Jct, YNP   4.87 170 1,010 2021-05-17 05:00:00 GMJW4
06037500 Madison River near West Yellowstone, MT   1.97 557 2,820 2021-05-17 05:30:00 MDSM8
06038500 Madison River bl Hebgen Lake nr Grayling MT   1.41 664 10,200 2021-05-17 05:45:00 HBDM8
06038800 Madison River at Kirby Ranch nr Cameron MT   1.94 1,100 5,030 2021-05-17 05:45:00 CMRM8
06040000 Madison River near Cameron MT   2.46 1,240 8,830 2021-05-17 05:15:00 CMNM8
06040800 Madison River ab powerplant nr McAllister MT   6.27 1,450 6,100 2021-05-17 05:30:00 MRPM8
06041000 Madison River bl Ennis Lake nr McAllister MT   2.23 1,440 9,550 2021-05-17 05:45:00 MADM8
06043120 Gallatin River above Deer Creek, near Big Sky, MT   6.37 1,370 4,890 2021-05-17 05:30:00 GBSM8
06043500 Gallatin River near Gallatin Gateway, MT 6 2.98 1,710 9,160 2021-05-17 05:00:00 GLGM8
06048650 E Gallatin R ab Water Reclamation Fa nr Bozeman MT   5.26 306 2,410 2021-05-17 05:30:00 EGBM8
06050000 Hyalite C at Hyalite R S nr Bozeman MT   2.43 36.1 956 2021-05-17 05:30:00 HCCM8
06052500 Gallatin River at Logan MT 9 5.19 1,100 9,840 2021-05-17 05:00:00 LOGM8
06054500 Missouri River at Toston MT 10.5 4.29 3,680 34,000 2021-05-17 05:00:00 TOSM8
06061500 Prickly Pear Creek near Clancy MT   1.18 57.8 2,300 2021-05-17 05:30:00 PKPM8
06062500 Tenmile Creek near Rimini MT   2.55 65.8 3,290 2021-05-17 05:45:00 RIMM8
06063000 Tenmile Creek near Helena MT 4.5 3.12 74.5 3,770 2021-05-17 05:15:00 TMHM8
06065500 Missouri River bl Hauser Dam near Helena MT   3.51 3,590 33,300 2021-05-17 05:00:00 HASM8
06066500 Missouri River bl Holter Dam nr Wolf Cr MT   2.45 3,580 34,800 2021-05-17 05:45:00 HTRM8
06071300 Little Prickly Pear Cr at Wolf Cr MT   3.18 91.8 4,500 2021-05-17 05:45:00 LPPM8
06073500 Dearborn River near Craig MT 6.5 4.48 361 15,400 2021-05-17 05:15:00 DBRM8
06074000 Missouri River at Cascade MT   6.76 4,030 54,200 2021-05-17 05:30:00 CASM8
06076690 Smith River near Ft Logan MT   2.75 53.3 4,600 2021-05-17 05:30:00 SFLM8
06077200 Smith River bl Eagle Cr nr Fort Logan MT   3.85 345 4,030 2021-05-17 05:15:00 SMHM8
06077500 Smith River near Eden MT   3.87 459 12,300 2021-05-17 05:45:00 EDNM8
06078200 Missouri River near Ulm MT 13.5 3.78 4,330 35,000 2021-05-17 05:00:00 ULMM8
06078500 North Fork Sun River near Augusta MT 9 5.91 1,240 51,100 2021-05-17 05:30:00 NFSM8
06079000 South Fork Sun River near Augusta MT   4.31 1,790 28,800 2021-05-17 05:15:00 SSNM8
06080900 Sun River bl Diversion Dam nr Augusta MT   6.03 1,410 59,700 2021-05-17 05:45:00  
06082200 Sun River bl Willow Cr nr Augusta MT   3.25 1,190 46,700 2021-05-17 05:15:00 SRVM8
06085800 Sun River at Simms MT 7.5 3.75 1,100 50,000 2021-05-17 05:30:00 SSRM8
06088500 Muddy Creek at Vaughn MT 12 4.04 179 7,600 2021-05-17 05:30:00 MDYM8
06089000 Sun River near Vaughn MT 6 2.97 1,270 53,500 2021-05-17 05:00:00 VAUM8
06090000 Missouri River at Great Falls MT   10.83

 

  2021-05-17 05:30:00 GFSM8
06090300 Missouri River near Great Falls MT   3.58 6,520 72,000 2021-05-17 05:45:00 GFLM8
06090500 Belt Creek near Monarch MT 6.5 3.14 260 11,000 2021-05-17 05:15:00 BTCM8
06090800 Missouri River at Fort Benton MT 13.5 2.66 6,580 140,000 2021-05-17 05:30:00 FBNM8
06091700 Two Medicine River bl South Fork nr Browning MT   4.09 998 11,700 2021-05-17 05:15:00 TMRM8
06092020 Two Medicine River ab Badger Cr, nr Piegan, MT   3.36 979 2,320 2021-05-17 05:15:00  
06093200 Badger Cr bl Four Horns Canal nr Browning MT 7 5.81 649 20,700 2021-05-17 05:15:00 BDCM8
06098120 Birch Creek at Bullhead Bridge, nr Valier, MT   4.42 Rat   2021-05-17 05:30:00  
06098800 Cut Bank Cr ab Gillam Coulee, nr Sundance, MT   4.78 305   2021-05-17 05:15:00  
06099000 Cut Bank Creek at Cut Bank MT   2.82 231 16,600 2021-05-17 05:30:00 CBKM8
06099500 Marias River near Shelby MT 9 3.09 366 241,000 2021-05-17 05:30:00 SHLM8
06101500 Marias River near Chester MT   3.59 604 10,400 2021-05-17 05:15:00 MRCM8
06102050 Marias River near Loma MT   1.36 575 12,300 2021-05-17 05:00:00 LOMM8
06102500 Teton River bl South Fork nr Choteau MT 9 4.51 199 54,600 2021-05-17 05:45:00 TSFM8
06108000 Teton River near Dutton MT 9 2.14 58.1 71,300 2021-05-17 05:30:00 DTTM8
06108800 Teton River at Loma MT   1.13 50.5 6,520 2021-05-17 05:30:00 LTRM8
06109500 Missouri River at Virgelle MT 17 3.89 7,560 122,000 2021-05-17 05:00:00 VRGM8
06110020 Judith River above Carr Creek near Utica MT   2.93 54.6 769 2021-05-17 05:30:00 JRUM8
06111800 Big Spring Cr at R&B Trading Post nr Lewistown MT   3.85 175 1,020 2021-05-17 05:30:00 LTPM8
06114700 Judith River nr mouth, nr Winifred MT   5.50 441 15,900 2021-05-17 05:15:00 JDRM8
06115200 Missouri River near Landusky MT 27 14.73 7,900 137,000 2021-05-17 05:00:00 LDKM8
06119200 South Fork Musselshell River at Martinsdale, MT   2.58 99.8 650 2021-05-17 05:45:00  
06119600 Musselshell River nr Martinsdale, MT   2.38 148 4,780 2021-05-17 05:15:00 MRMM8
06120500 Musselshell River at Harlowton MT 7 2.93 115 7,270 2021-05-17 05:00:00 HLWM8
06123030 Musselshell River ab Mud Cr nr Shawmut MT 8 3.10 16.3 8,900 2021-05-17 05:30:00 SHAM8
06125600 Musselshell River ab Big Coulee Creek at Lavina MT 9.5 2.00 121 5,700 2021-05-17 05:30:00 LVNM8
06126500 Musselshell River near Roundup MT 10 1.89 108 15,000 2021-05-17 05:00:00 RUPM8
06127500 Musselshell River at Musselshell MT 11 1.85 46.5 16,200 2021-05-17 05:30:00 MUSM8
06130000 Flatwillow Creek near Mosby MT   5.15 10.8 19,700 2021-05-17 05:00:00 MFLM8
06130500 Musselshell River at Mosby MT 10 2.51 46.4 25,100 2021-05-17 05:45:00 MSBM8
06131200 Nelson Creek near Van Norman MT   2.21 0.03 1,750 2021-05-17 05:15:00  
06132000 Missouri River below Fort Peck Dam MT   2.61

 

65,900 2021-05-17 05:15:00  
06133500 N F Milk River ab St. Mary canal nr Browning MT   1.85 18.8 3,090 2021-05-17 05:15:00 NFMM8
06135000 Milk River at Eastern Crossing of Int Bndry 9.5 4.13 706 14,400 2021-05-17 05:15:00 ERNM8
06137575 Boxelder Creek at Box Elder, MT   6.36 0.07   2021-05-17 05:00:00  
06138580 Big Sandy Cr ab Spring Coulee, nr Laredo, MT   2.97 11.4   2021-05-17 05:00:00  
06139500 Big Sandy Creek near Havre MT 8.5 2.24 13.0 6,000 2021-05-17 05:30:00 BSMM8
06140500 Milk River at Havre MT 10 3.16 972 20,000 2021-05-17 05:15:00 HVRM8
06142400 Clear Creek near Chinook MT 5.5 1.57 9.01 1,490 2021-05-17 05:30:00 CCMM8
06151500 Battle Creek near Chinook MT 10 1.59 35.9 19,400 2021-05-17 05:30:00 BCMM8
06154100 Milk River near Harlem MT 21 5.98 521 19,000 2021-05-17 05:30:00 HRLM8
06154400 Peoples Creek near Hays MT   2.87 5.31 8,460 2021-05-17 05:15:00 PEOM8
06155030 Milk River near Dodson MT 23 3.16 9.40 13,200 2021-05-17 05:15:00 DMRM8
06155500 Milk River at Malta MT 16 1.34 35.9 24,000 2021-05-17 05:15:00 MALM8
06164000 Frenchman River at international boundary 12 1.322 0.389 22,700 2021-05-17 05:25:00 FREM8
06164510 Milk River at Juneberg Bridge nr Saco MT 20 3.17 179 12,400 2021-05-17 05:00:00 SACM8
06166000 Beaver Cr bl Guston Coulee nr Saco MT 11 1.37 0.04 23,500 2021-05-14 01:15:00 GSCM8
06167500 Beaver Creek near Hinsdale MT 14 2.93 15.3 8,210 2021-05-17 05:30:00 BCHM8
06169500 Rock Creek bl Horse Creek nr int'l boundary   2.75 5.71 5,110 2021-05-17 05:30:00 ORHM8
06172310 Milk River at Tampico MT 23 2.03 49.1 45,000 2021-05-17 05:30:00 TMPM8
06174500 Milk River at Nashua MT 20 1.98 163 45,300 2021-05-17 05:00:00 NSHM8
06175100 Missouri R at W Frazer Pump Plant nr Frazer MT   8.92

 

  2021-05-17 05:00:00  
06175510 Missouri R at E Frazer Pump Plant nr Frazer MT   43.05

 

  2021-05-17 05:30:00  
06177000 Missouri River near Wolf Point MT 23 11.68 9,290 93,200 2021-05-17 05:00:00 WPTM8
06177500 Redwater River at Circle MT 11 3.47 0.91 6,960 2021-05-17 05:30:00 RRCM8
06178000 Poplar River at international boundary 6 2.55 9.28 12,700 2021-05-17 05:15:00 PPRM8
06178500 East Poplar River at international boundary 10 6.20 18.4 4,020 2021-05-17 05:30:00 EPRM8
06181000 Poplar River near Poplar MT 16 7.25 82.1 40,000 2021-05-17 05:30:00 PLRM8
06183450 Big Muddy Creek near Antelope MT 12 1.99 21.1 3,190 2021-05-17 05:15:00 BGCM8
06185110 Big Muddy Creek nr mouth nr Culbertson MT 16 4.68 21.3 2,480 2021-05-17 05:15:00 CBMM8
06185500 Missouri River near Culbertson MT 19 2.99 7,640 104,000 2021-05-17 05:00:00 CLBM8
06186500 Yellowstone River at Yellowstone Lk Outlet YNP 9 3.18 869 9,950 2021-05-17 05:30:00 YLOW4
06187915 Soda Butte Cr at Park Bndry at Silver Gate   1.69 177 1,430 2021-05-17 05:45:00 SBCM8
06188000 Lamar River nr Tower Ranger Station YNP 15 5.59 4,340 19,500 2021-05-17 05:15:00 TFLW4
06190540 Boiling River at Mammoth,YNP   1.12 23.4 36.0 2021-05-17 05:15:00  
06191000 Gardner River near Mammoth, YNP   2.68 387 2,110 2021-05-17 05:45:00 GDRM8
06191500 Yellowstone River at Corwin Springs MT 11 5.35 8,280 32,200 2021-05-17 05:00:00 CORM8
06192500 Yellowstone River near Livingston, MT 10 4.21 6,280 40,600 2021-05-17 05:45:00 LIVM8
06192900 Dugout Creek at mouth, nr Wilsall, MT   2.06

 

  2021-04-10 13:15:00  
06192980 Shields River abv Smith Cr, nr Wilsall, MT   2.45 Rat   2021-05-16 22:15:00  
06195600 Shields River nr Livingston MT 5.5 1.97 445 5,600 2021-05-17 05:30:00 SLDM8
06197800 East Boulder River bl Dry Fork Cr nr Mcleod, MT   2.71 56.0 1,280 2021-05-17 05:30:00  
06200000 Boulder River at Big Timber MT 8 3.71 1,020 10,400 2021-05-17 05:45:00 BTMM8
06204050 West Rosebud Creek near Roscoe MT   0.84 70.1 1,630 2021-05-17 05:00:00 WRDM8
06204070 W Rosebud Cr at Emerald Lk Campground nr Roscoe   1.69 86.3 1,390 2021-05-17 05:30:00 WREM8
06205000 Stillwater River near Absarokee MT 7.5 3.13 1,200 12,000 2021-05-17 05:15:00 SRAM8
06207500 Clarks Fork Yellowstone River nr Belfry MT 9 3.89 2,320 14,800 2021-05-17 05:00:00 BFYM8
06208500 Clarks Fork Yellowstone River at Edgar MT 9 3.70 1,610 11,400 2021-05-17 05:30:00 EDGM8
06209500 Rock Creek near Red Lodge MT   5.14 95.3 3,110 2021-05-17 05:00:00 ROKM8
06211000 Red Lodge Cr ab Cooney Re nr Boyd MT   2.18 83.3 4,700 2021-05-17 05:15:00 BYDM8
06211500 Willow Creek near Boyd MT   2.69 24.8 2,110 2021-05-17 05:30:00 BOYM8
06214500 Yellowstone River at Billings MT 13.5 5.05 9,280 82,000 2021-05-17 05:00:00 BILM8
06286490 Big Horn Canal near St. Xavier MT   69.56 21.4   2021-05-17 05:15:00  
06287000 Bighorn River near St. Xavier, MT   59.99 2,490 37,400 2021-05-17 05:15:00 STXM8
06287800 Bighorn River at bridge, at St. Xavier, MT   6.49 2,500 14,700 2021-05-17 05:30:00 SXVM8
06288400 Bighorn River at Two Leggins Bridge, near Hardin   10.17 2,140 16,300 2021-05-17 05:30:00 TLBM8
06289000 Little Bighorn River at State Line nr Wyola MT   2.63 211 2,730 2021-05-17 05:00:00 LBSM8
06294000 Little Bighorn River near Hardin MT 8 3.07 207 22,600 2021-05-17 05:15:00 HRDM8
06294500 Bighorn River ab Tullock Cr nr Bighorn MT   1.72 2,600 33,200 2021-05-17 05:00:00 BGHM8
06295000 Yellowstone River at Forsyth MT 14 3.40 12,200 110,000 2021-05-17 05:45:00 FRYM8
06295113 Rosebud C at Reservation Bndry nr Kirby MT   3.09 10.1 1,720 2021-05-17 05:45:00 RCRM8
06295220 Rosebud C Bel Lame Deer C nr Lame Deer MT   4.65 24.8 1,150 2021-05-17 05:45:00 RCLM8
06306300 Tongue River at State Line nr Decker MT   3.83 647 17,500 2021-05-17 05:15:00 DSLM8
06307500 Tongue River at Tongue R Dam nr Decker MT   11.54 452 10,800 2021-05-17 05:30:00 DKRM8
06307616 Tongue R at Birney Day School Br nr Birney MT 7 2.08 497 7,160 2021-05-17 05:30:00 BNYM8
06307830 Tongue R bl Brandenberg bridge nr Ashland MT   3.72 422 8,340 2021-05-17 05:15:00 ASLM8
06308500 Tongue River at Miles City, MT 10 2.37 273 15,300 2021-05-17 05:00:00 MICM8
06309000 Yellowstone River at Miles City, MT 14 4.42 10,500 102,000 2021-05-17 05:00:00 MILM8
06324500 Powder River at Moorhead MT   3.20 281 100,000 2021-05-17 05:45:00 MHDM8
06326500 Powder River near Locate MT   1.28 281 31,000 2021-05-17 05:00:00 LOCM8
06327500 Yellowstone River at Glendive, MT 53.5 44.12 10,600 125,000 2021-05-17 05:00:00 GLNM8
06329500 Yellowstone River near Sidney MT 19 4.70 9,520 159,000 2021-05-17 05:00:00 SIDM8
12301250 Tobacco River at Eureka, MT   3.71 515 2,220 2021-05-17 05:30:00  
12301933 Kootenai River bl Libby Dam nr Libby MT 27.5 23.83 25,600 54,000 2021-05-17 05:00:00 KBDM8
12302055 Fisher River near Libby MT 7.5 4.82 936 12,000 2021-05-17 05:45:00 FISM8
12304500 Yaak River near Troy MT 8 5.84 2,400 13,400 2021-05-17 05:45:00 TRYM8
12305000 KOOTENAI RIVER AT LEONIA, ID   19.97 32,200 123,000 2021-05-17 04:15:00 LEOI1
12323233 Blacktail Creek above Grove Gulch, at Butte, MT 8.7 4.88 9.41 77.7 2021-05-17 05:45:00 BKCM8
12323242 Silver Bow Creek at Montana Street, at Butte, MT   6.48 24.5   2021-05-17 05:45:00  
12323250 Silver Bow Cr bl Blacktail Cr, at Butte, MT   1.77 37.6 447 2021-05-17 05:45:00  
12323600 Silver Bow Creek at Opportunity MT   2.27 78.1 1,300 2021-05-17 05:45:00  
12323670 Mill Creek nr Anaconda, MT   2.71 68.9 432 2021-05-17 05:00:00  
12323700 Mill Creek at Opportunity, MT   2.34 23.1 284 2021-05-17 05:30:00  
12323710 Willow Creek nr Anaconda, MT   1.63 9.70 184 2021-05-17 05:00:00  
12323720 Willow Creek at Opportunity, MT   3.97 7.56 211 2021-05-17 05:30:00  
12323750 Silver Bow Creek at Warm Springs MT   2.14 96.9 1,320 2021-05-17 05:15:00  
12323760 Warm Springs Creek near Anaconda MT 4.4 2.68 165 930 2021-05-17 05:30:00 ANDM8
12323770 Warm Springs Creek at Warm Springs MT   3.50 103 828 2021-05-17 05:45:00  
12323800 Clark Fork near Galen MT   2.33 201 1,410 2021-05-17 05:30:00  
12323840 Lost Creek near Anaconda MT   3.16 17.7 144 2021-05-17 05:00:00  
12323850 Lost Creek near Galen, MT   1.63 28.3 164 2021-05-17 05:30:00  
12324200 Clark Fork at Deer Lodge MT 6 2.72 226 2,500 2021-05-17 05:30:00 DLGM8
12324400 Clark Fork ab Little Blackfoot R nr Garrison MT   3.15 233 2,690 2021-05-17 05:45:00  
12324590 Little Blackfoot River near Garrison MT   1.49 315 8,650 2021-05-17 05:30:00  
12324680 Clark Fork at Goldcreek MT   4.87 666 12,000 2021-05-17 05:00:00  
12325000 Georgetown Lake near Philipsburg, MT   6428.37

 

  2021-05-17 05:15:00  
12325500 Flint Creek near Southern Cross MT   0.77 29.4 192 2021-05-17 05:45:00  
12329500 Flint Creek at Maxville MT   2.24 92.6 3,140 2021-05-17 05:45:00  
12330000 Boulder Creek at Maxville MT   1.38 41.6 2,720 2020-12-31 23:45:00  
12331500 Flint Creek near Drummond MT   2.39 125 1,880 2021-05-17 05:30:00  
12331800 Clark Fork near Drummond MT 8 3.61 867 9,800 2021-05-17 05:15:00 DRMM8
12332000 Middle Fork Rock Cr nr Philipsburg MT   3.22 570 1,680 2021-05-17 05:15:00  
12334510 Rock Creek near Clinton MT 9 6.84 1,940 6,500 2021-05-17 05:45:00 RCCM8
12334550 Clark Fork at Turah Bridge nr Bonner MT   3.91 3,080 13,300 2021-05-17 05:30:00  
12335100 Blackfoot R ab Nevada Cr nr Helmville MT   5.39 862 4,860 2021-05-17 05:45:00  
12335500 Nevada Cr ab reservoir, nr Helmville, MT   2.69 112 1,800 2021-05-17 05:45:00  
12338300 NF Blackfoot R ab Dry Gulch nr Ovando MT   6.31 1,390 4,700 2021-05-17 05:00:00  
12340000 Blackfoot River near Bonner MT 10 5.44 4,650 19,200 2021-05-17 05:45:00 BONM8
12340500 Clark Fork above Missoula MT 7.5 5.86 7,830 48,000 2021-05-17 05:00:00 ABOM8
12342500 West Fork Bitterroot River nr Conner MT   3.41 1,170 4,060 2021-05-17 05:15:00 WFBM8
12344000 Bitterroot River near Darby MT 7.5 5.02 3,920 11,500 2021-05-17 05:15:00 DARM8
12350250 Bitterroot River at Bell Crossing nr Victor MT 11 8.93 7,550 18,700 2021-05-17 05:45:00 VICM8
12352500 Bitterroot River near Missoula MT 11 7.18 6,940 38,300 2021-05-17 05:45:00 BITM8
12353000 Clark Fork below Missoula MT 11 5.87 14,600 55,100 2021-05-17 05:00:00 BELM8
12354000 St. Regis River near St. Regis, MT 8 4.64 1,570 29,000 2021-05-17 05:45:00 STRM8
12354500 Clark Fork at St. Regis MT 19 11.13 18,100 68,900 2021-05-17 05:45:00 SRGM8
12355000 Flathead River at Flathead British Columbia 10.5 7.66 3,500 20,900 2021-05-17 05:45:00 NFFQ2
12355342 Hallowat Creek abv Kletomus Creek, near Olney, MT   4.08 155   2021-05-17 05:15:00  
12355347 Big Creek below Lookout Creek, near Apgar, MT   3.80 630   2021-05-17 05:30:00  
12355500 N F Flathead River nr Columbia Falls MT 13 6.11 8,670 69,100 2021-05-17 05:45:00 FCFM8
12357800 Snyder Creek nr mouth, nr West Glacier, MT 8 4.28

 

  2021-05-17 05:40:00 SNYM8
12358500 M F Flathead River near West Glacier MT 10 5.65 10,000 140,000 2021-05-17 05:45:00 WGCM8
12359800 S F Flathead R ab Twin C nr Hungry Horse MT   10.34 10,100 50,900 2021-05-17 05:45:00 TNCM8
12362000 Hungry Horse Reservoir nr Hungry Horse MT   3533.74

 

  2021-05-17 05:45:00  
12362500 S F Flathead River nr Columbia Falls MT   7.82 5,520 46,200 2021-05-17 05:45:00 HHWM8
12363000 Flathead River at Columbia Falls MT 13 9.34 23,200 176,000 2021-05-17 05:45:00 CFMM8
12365700 Stillwater River at Lawrence Park, at Kalispell 7.5 4.15 515 3,940 2021-05-17 05:45:00 SRLM8
12366000 Whitefish River near Kalispell MT 5 2.62 355 1,580 2021-05-17 05:45:00 WHRM8
12366500 Flathead River at Foys Bend nr Kalispell MT   94.33

 

  2021-05-17 05:45:00 FOYM8
12370000 Swan River near Bigfork, MT 6.5 3.77 1,920 8,890 2021-05-17 05:00:00 SWRM8
12371550 Flathead Lake at Polson MT   2888.63

 

  2021-05-17 05:30:00 KERM8
12372000 Flathead River near Polson MT 18 8.56 16,000 110,000 2021-05-17 05:50:00 FPOM8
12377150 Mission Creek ab reservoir nr St. Ignatius MT   2.67 103 915 2021-05-17 05:15:00  
12381400 South Fork Jocko River near Arlee MT   2.57 224 1,220 2021-05-17 05:15:00  
12388700 Flathead River at Perma MT   11.61 16,300 54,900 2021-05-17 05:30:00 PERM8
12389000 Clark Fork near Plains MT 16 8.81 33,800 134,000 2021-05-17 05:45:00 PLNM8
12389500 Thompson River near Thompson Falls MT 7 3.95 822 6,190 2021-05-17 05:45:00 THRM8
12390700 Prospect Creek at Thompson Falls MT 7.5 3.69 762 5,490 2021-05-17 05:15:00 PRCM8
480608115242901 Libby Wetland Site bl Schrieber Lake nr Libby, MT   3.72 Bkw 34.0 2021-05-17 05:30:00